createdAt,value
2017-11-18T00:02:09.843Z,3.70
2017-11-18T00:04:39.016Z,3.60
2017-11-18T00:07:07.389Z,3.60
2017-11-18T00:09:35.765Z,3.60
2017-11-18T00:12:04.154Z,3.60
2017-11-18T00:14:32.539Z,3.40
2017-11-18T00:17:01.097Z,3.20
2017-11-18T00:19:29.484Z,3.20
2017-11-18T00:21:57.857Z,3.40
2017-11-18T00:24:26.261Z,3.40
2017-11-18T00:26:54.635Z,3.40
2017-11-18T00:29:23.061Z,3.40
2017-11-18T00:31:51.438Z,3.30
2017-11-18T00:34:19.808Z,3.30
2017-11-18T00:36:48.212Z,3.30
2017-11-18T00:39:16.601Z,3.40
2017-11-18T00:41:45.176Z,3.30
2017-11-18T00:44:13.548Z,3.30
2017-11-18T00:46:41.926Z,3.30
2017-11-18T00:49:10.321Z,3.00
2017-11-18T00:51:38.700Z,3.00
2017-11-18T00:54:30.861Z,3.10
2017-11-18T00:56:59.237Z,3.10
2017-11-18T00:59:27.604Z,3.00
2017-11-18T01:01:56.002Z,3.10
2017-11-18T01:04:24.374Z,3.00
2017-11-18T01:06:52.884Z,3.00
2017-11-18T01:09:22.016Z,3.10
2017-11-18T01:11:50.386Z,3.10
2017-11-18T01:14:18.771Z,3.00
2017-11-18T01:16:47.136Z,3.10
2017-11-18T01:19:15.543Z,3.20
2017-11-18T01:21:43.936Z,3.10
2017-11-18T01:24:12.315Z,3.00
2017-11-18T01:26:40.710Z,3.00
2017-11-18T01:29:10.580Z,3.00
2017-11-18T01:31:39.009Z,3.00
2017-11-18T01:34:08.145Z,2.90
2017-11-18T01:36:36.525Z,2.90
2017-11-18T01:39:04.960Z,3.00
2017-11-18T01:41:33.327Z,2.90
2017-11-18T01:44:01.828Z,3.00
2017-11-18T01:46:31.034Z,3.00
2017-11-18T01:49:00.175Z,3.00
2017-11-18T01:51:28.576Z,3.00
2017-11-18T01:53:56.950Z,3.00
2017-11-18T01:56:25.457Z,3.00
2017-11-18T01:58:54.605Z,3.10
2017-11-18T02:01:22.975Z,3.10
2017-11-18T02:03:51.367Z,3.10
2017-11-18T02:06:19.735Z,3.20
2017-11-18T02:08:48.321Z,3.10
2017-11-18T02:11:16.700Z,3.00
2017-11-18T02:13:45.086Z,3.00
2017-11-18T02:16:13.489Z,3.00
2017-11-18T02:18:41.859Z,3.00
2017-11-18T02:21:10.519Z,3.10
2017-11-18T02:23:38.905Z,3.10
2017-11-18T02:26:07.291Z,3.10
2017-11-18T02:28:35.705Z,3.20
2017-11-18T02:31:04.887Z,3.20
2017-11-18T02:33:33.471Z,3.10
2017-11-18T02:36:01.851Z,3.10
2017-11-18T02:38:30.230Z,3.10
2017-11-18T02:40:58.660Z,3.20
2017-11-18T02:43:27.044Z,3.20
2017-11-18T02:45:55.495Z,3.20
2017-11-18T02:48:24.644Z,3.10
2017-11-18T02:50:53.023Z,3.10
2017-11-18T02:53:21.449Z,3.10
2017-11-18T02:55:50.609Z,3.00
2017-11-18T02:58:19.468Z,3.00
2017-11-18T03:00:47.837Z,2.90
2017-11-18T03:03:16.234Z,2.90
2017-11-18T03:05:44.638Z,3.00
2017-11-18T03:08:13.004Z,3.20
2017-11-18T03:10:41.416Z,3.20
2017-11-18T03:13:10.558Z,2.90
2017-11-18T03:15:38.945Z,2.90
2017-11-18T03:18:07.431Z,2.90
2017-11-18T03:20:35.796Z,2.90
2017-11-18T03:23:04.490Z,3.00
2017-11-18T03:25:32.862Z,3.10
2017-11-18T03:28:01.234Z,3.10
2017-11-18T03:30:29.709Z,3.00
2017-11-18T03:32:58.104Z,3.00
2017-11-18T03:35:26.680Z,3.10
2017-11-18T03:37:55.050Z,3.10
2017-11-18T03:40:23.423Z,3.20
2017-11-18T03:42:51.846Z,3.10
2017-11-18T03:45:20.225Z,3.10
2017-11-18T03:47:48.679Z,3.10
2017-11-18T03:50:17.084Z,3.10
2017-11-18T03:52:45.461Z,3.10
2017-11-18T03:55:13.827Z,3.20
2017-11-18T03:57:42.228Z,3.10
2017-11-18T04:00:10.597Z,2.90
2017-11-18T04:02:38.980Z,2.90
2017-11-18T04:05:07.376Z,3.00
2017-11-18T04:07:35.747Z,2.90
2017-11-18T04:10:04.919Z,2.80
2017-11-18T04:12:33.319Z,2.80
2017-11-18T04:15:01.695Z,2.80
2017-11-18T04:17:30.098Z,2.90
2017-11-18T04:19:59.240Z,3.00
2017-11-18T04:22:27.684Z,3.00
2017-11-18T04:24:56.826Z,3.10
2017-11-18T04:27:25.205Z,3.10
2017-11-18T04:29:53.608Z,3.10
2017-11-18T04:32:21.985Z,3.00
2017-11-18T04:34:50.499Z,2.90
2017-11-18T04:37:18.884Z,2.90
2017-11-18T04:39:47.275Z,2.80
2017-11-18T04:42:15.669Z,2.80
2017-11-18T04:44:44.053Z,2.90
2017-11-18T04:47:12.831Z,2.80
2017-11-18T04:49:41.217Z,2.70
2017-11-18T04:52:09.587Z,2.60
2017-11-18T04:54:37.990Z,2.60
2017-11-18T04:57:06.373Z,2.60
2017-11-18T04:59:34.877Z,2.70
2017-11-18T05:02:04.008Z,2.60
2017-11-18T05:04:32.374Z,2.60
2017-11-18T05:07:00.775Z,2.60
2017-11-18T05:09:29.150Z,2.60
2017-11-18T05:11:57.848Z,2.60
2017-11-18T05:14:26.218Z,2.60
2017-11-18T05:16:54.592Z,2.60
2017-11-18T05:19:22.986Z,2.60
2017-11-18T05:21:51.392Z,2.60
2017-11-18T05:24:19.809Z,2.60
2017-11-18T05:26:48.225Z,2.70
2017-11-18T05:29:16.600Z,2.70
2017-11-18T05:31:44.991Z,2.70
2017-11-18T05:34:14.935Z,2.80
2017-11-18T05:36:44.291Z,2.90
2017-11-18T05:39:12.794Z,2.90
2017-11-18T05:41:41.163Z,2.90
2017-11-18T05:44:09.556Z,2.90
2017-11-18T05:46:37.931Z,2.80
2017-11-18T05:49:06.703Z,2.80
2017-11-18T05:51:35.075Z,2.80
2017-11-18T05:54:03.456Z,2.90
2017-11-18T05:56:31.847Z,2.70
2017-11-18T05:59:00.215Z,2.70
2017-11-18T06:01:28.679Z,2.80
2017-11-18T06:03:57.057Z,2.90
2017-11-18T06:06:25.435Z,2.90
2017-11-18T06:08:53.839Z,2.90
2017-11-18T06:11:22.214Z,2.90
2017-11-18T06:13:50.625Z,2.90
2017-11-18T06:16:19.770Z,3.20
2017-11-18T06:18:48.168Z,3.10
2017-11-18T06:21:16.561Z,3.00
2017-11-18T06:23:44.931Z,3.10
2017-11-18T06:26:13.356Z,3.00
2017-11-18T06:28:42.502Z,3.00
2017-11-18T06:31:10.896Z,3.00
2017-11-18T06:33:39.295Z,3.10
2017-11-18T06:36:07.675Z,3.00
2017-11-18T06:38:36.851Z,3.00
2017-11-18T06:41:05.224Z,3.00
2017-11-18T06:43:34.411Z,3.00
2017-11-18T06:46:02.833Z,3.00
2017-11-18T06:48:31.973Z,3.20
2017-11-18T06:51:00.485Z,3.10
2017-11-18T06:53:28.864Z,3.10
2017-11-18T06:55:57.246Z,3.10
2017-11-18T06:58:25.648Z,3.20
2017-11-18T07:00:54.850Z,3.30
2017-11-18T07:03:24.191Z,3.30
2017-11-18T07:05:52.564Z,3.30
2017-11-18T07:08:20.953Z,3.30
2017-11-18T07:10:49.361Z,3.20
2017-11-18T07:13:17.745Z,3.20
2017-11-18T07:15:46.489Z,3.30
2017-11-18T07:18:14.871Z,3.20
2017-11-18T07:20:43.247Z,3.10
2017-11-18T07:23:11.638Z,3.10
2017-11-18T07:25:40.011Z,3.10
2017-11-18T07:28:08.424Z,3.10
2017-11-18T07:30:38.315Z,3.10
2017-11-18T07:33:07.137Z,3.10
2017-11-18T07:35:36.296Z,3.20
2017-11-18T07:38:05.495Z,3.20
2017-11-18T07:40:34.070Z,3.20
2017-11-18T07:43:02.464Z,3.30
2017-11-18T07:45:30.840Z,3.30
2017-11-18T07:47:59.239Z,3.50
2017-11-18T07:50:27.624Z,3.60
2017-11-18T07:52:56.477Z,3.50
2017-11-18T07:55:24.921Z,3.40
2017-11-18T07:57:53.318Z,3.50
2017-11-18T08:00:21.740Z,3.50
2017-11-18T08:02:51.759Z,3.70
2017-11-18T08:05:20.184Z,3.70
2017-11-18T08:07:48.554Z,3.80
2017-11-18T08:10:16.943Z,3.70
2017-11-18T08:12:45.364Z,3.70
2017-11-18T08:15:13.743Z,3.70
2017-11-18T08:17:42.173Z,3.70
2017-11-18T08:20:10.561Z,3.70
2017-11-18T08:22:38.932Z,3.70
2017-11-18T08:25:07.333Z,3.60
2017-11-18T08:27:35.699Z,3.60
2017-11-18T08:30:04.197Z,3.50
2017-11-18T08:32:32.573Z,3.50
2017-11-18T08:35:01.020Z,3.60
2017-11-18T08:37:29.583Z,3.50
2017-11-18T08:39:58.720Z,3.50
2017-11-18T08:42:27.372Z,3.50
2017-11-18T08:44:56.502Z,3.60
2017-11-18T08:47:24.884Z,3.60
2017-11-18T08:49:53.284Z,3.60
2017-11-18T08:52:21.654Z,3.60
2017-11-18T08:54:50.226Z,3.60
2017-11-18T08:57:18.611Z,3.70
2017-11-18T08:59:46.995Z,3.70
2017-11-18T09:02:15.412Z,3.80
2017-11-18T09:04:43.779Z,3.70
2017-11-18T09:07:12.285Z,3.80
2017-11-18T09:09:41.423Z,3.70
2017-11-18T09:12:09.792Z,3.70
2017-11-18T09:14:38.194Z,3.70
2017-11-18T09:17:06.573Z,3.80
2017-11-18T09:19:35.270Z,3.80
2017-11-18T09:22:03.646Z,3.80
2017-11-18T09:24:32.016Z,3.80
2017-11-18T09:27:00.408Z,3.90
2017-11-18T09:29:28.772Z,3.90
2017-11-18T09:31:57.487Z,3.90
2017-11-18T09:34:25.870Z,3.90
2017-11-18T09:36:55.014Z,3.90
2017-11-18T09:39:24.251Z,3.90
2017-11-18T09:41:52.621Z,3.90
2017-11-18T09:44:21.265Z,3.80
2017-11-18T09:46:49.636Z,3.90
2017-11-18T09:49:18.002Z,4.00
2017-11-18T09:51:46.621Z,4.10
2017-11-18T09:54:15.000Z,4.00
2017-11-18T09:56:43.510Z,4.10
2017-11-18T09:59:12.665Z,4.20
2017-11-18T10:01:41.038Z,4.10
2017-11-18T10:04:09.439Z,4.10
2017-11-18T10:06:38.342Z,4.20
2017-11-18T10:09:07.032Z,4.20
2017-11-18T10:11:35.409Z,4.30
2017-11-18T10:14:03.791Z,4.20
2017-11-18T10:16:32.183Z,4.20
2017-11-18T10:19:00.558Z,4.20
2017-11-18T10:21:29.011Z,4.10
2017-11-18T10:23:57.535Z,4.10
2017-11-18T10:26:25.991Z,4.10
2017-11-18T10:28:54.967Z,4.10
2017-11-18T10:31:23.350Z,4.10
2017-11-18T10:33:51.779Z,4.00
2017-11-18T10:36:20.928Z,4.00
2017-11-18T10:38:49.305Z,4.00
2017-11-18T10:41:17.741Z,4.10
2017-11-18T10:43:46.152Z,4.10
2017-11-18T10:46:14.976Z,4.10
2017-11-18T10:48:43.356Z,4.10
2017-11-18T10:51:11.797Z,4.10
2017-11-18T10:53:40.202Z,4.20
2017-11-18T10:56:08.676Z,4.30
2017-11-18T10:58:37.484Z,4.20
2017-11-18T11:01:06.630Z,4.30
2017-11-18T11:03:35.143Z,4.20
2017-11-18T11:06:04.420Z,4.20
2017-11-18T11:08:32.870Z,4.20
2017-11-18T11:11:01.363Z,4.30
2017-11-18T11:13:29.744Z,4.30
2017-11-18T11:15:58.283Z,4.40
2017-11-18T11:18:26.713Z,4.40
2017-11-18T11:20:55.161Z,4.40
2017-11-18T11:23:24.604Z,4.50
2017-11-18T11:25:53.000Z,4.40
2017-11-18T11:28:21.386Z,4.50
2017-11-18T11:30:49.787Z,4.60
2017-11-18T11:33:18.250Z,4.70
2017-11-18T11:35:46.964Z,4.70
2017-11-18T11:38:16.169Z,4.80
2017-11-18T11:40:45.303Z,4.90
2017-11-18T11:43:13.693Z,4.90
2017-11-18T11:45:42.071Z,4.90
2017-11-18T11:48:10.636Z,4.90
2017-11-18T11:50:39.012Z,4.90
2017-11-18T11:53:07.913Z,5.00
2017-11-18T11:55:36.331Z,5.00
2017-11-18T11:58:04.753Z,5.10
2017-11-18T12:00:33.189Z,5.30
2017-11-18T12:03:01.577Z,5.40
2017-11-18T12:05:30.775Z,5.30
2017-11-18T12:07:59.949Z,5.20
2017-11-18T12:10:28.323Z,5.20
2017-11-18T12:12:56.729Z,5.20
2017-11-18T12:15:25.882Z,5.20
2017-11-18T12:17:54.258Z,5.20
2017-11-18T12:20:22.663Z,5.20
2017-11-18T12:22:51.049Z,5.20
2017-11-18T12:25:19.508Z,5.30
2017-11-18T12:27:47.892Z,5.20
2017-11-18T12:30:16.586Z,5.20
2017-11-18T12:32:45.315Z,5.20
2017-11-18T12:35:13.741Z,5.20
2017-11-18T12:37:42.440Z,5.30
2017-11-18T12:40:10.885Z,5.20
2017-11-18T12:42:39.277Z,5.20
2017-11-18T12:45:08.461Z,5.10
2017-11-18T12:47:36.832Z,5.10
2017-11-18T12:50:05.272Z,5.10
2017-11-18T12:52:34.421Z,5.00
2017-11-18T12:55:02.877Z,5.00
2017-11-18T12:57:31.277Z,5.00
2017-11-18T12:59:59.679Z,5.00
2017-11-18T13:02:28.207Z,5.00
2017-11-18T13:04:57.376Z,5.10
2017-11-18T13:07:25.745Z,5.00
2017-11-18T13:09:54.228Z,5.00
2017-11-18T13:12:22.688Z,5.00
2017-11-18T13:14:51.101Z,5.00
2017-11-18T13:17:20.261Z,5.00
2017-11-18T13:19:48.640Z,5.00
2017-11-18T13:22:17.044Z,5.00
2017-11-18T13:24:45.458Z,5.10
2017-11-18T13:27:13.841Z,5.10
2017-11-18T13:29:42.240Z,5.00
2017-11-18T13:32:10.613Z,5.00
2017-11-18T13:34:39.221Z,4.90
2017-11-18T13:37:07.600Z,4.90
2017-11-18T13:39:35.972Z,4.90
2017-11-18T13:42:04.368Z,5.00
2017-11-18T13:44:32.760Z,4.90
2017-11-18T13:47:01.400Z,4.90
2017-11-18T13:49:29.810Z,4.90
2017-11-18T13:51:58.180Z,4.90
2017-11-18T13:54:26.594Z,4.90
2017-11-18T13:56:55.734Z,4.90
2017-11-18T13:59:24.426Z,4.90
2017-11-18T14:01:52.791Z,4.90
2017-11-18T14:04:21.252Z,4.90
2017-11-18T14:06:49.669Z,4.80
2017-11-18T14:09:18.086Z,4.80
2017-11-18T14:11:47.442Z,4.80
2017-11-18T14:14:15.866Z,4.80
2017-11-18T14:16:44.257Z,4.90
2017-11-18T14:19:13.419Z,4.80
2017-11-18T14:21:41.800Z,4.80
2017-11-18T14:24:10.317Z,4.80
2017-11-18T14:26:39.464Z,4.80
2017-11-18T14:29:07.861Z,4.80
2017-11-18T14:31:36.298Z,4.80
2017-11-18T14:34:04.699Z,4.80
2017-11-18T14:36:33.273Z,4.80
2017-11-18T14:39:01.769Z,4.80
2017-11-18T14:41:30.284Z,4.80
2017-11-18T14:43:58.857Z,4.90
2017-11-18T14:46:27.240Z,4.80
2017-11-18T14:48:56.026Z,4.90
2017-11-18T14:51:24.502Z,4.90
2017-11-18T14:53:52.993Z,4.90
2017-11-18T14:56:21.445Z,4.90
2017-11-18T14:58:49.835Z,4.90
2017-11-18T15:01:19.057Z,4.90
2017-11-18T15:03:48.217Z,4.90
2017-11-18T15:06:16.746Z,4.80
2017-11-18T15:08:46.227Z,4.90
2017-11-18T15:11:14.757Z,4.90
2017-11-18T15:13:43.491Z,4.90
2017-11-18T15:16:18.051Z,4.90
2017-11-18T15:18:56.996Z,4.90
2017-11-18T15:24:36.791Z,4.80
2017-11-18T15:27:10.803Z,4.90
2017-11-18T15:29:42.471Z,4.80
2017-11-18T15:32:29.714Z,4.80
2017-11-18T15:35:01.490Z,4.80
2017-11-18T15:40:44.903Z,4.90
2017-11-18T15:43:14.889Z,4.90
2017-11-18T15:45:48.157Z,4.90
2017-11-18T15:48:22.167Z,4.80
2017-11-18T15:51:08.369Z,4.80
2017-11-18T15:53:42.339Z,4.90
2017-11-18T15:56:18.160Z,4.90
2017-11-18T15:58:48.966Z,4.90
2017-11-18T16:01:23.176Z,4.90
2017-11-18T16:03:55.423Z,4.90
2017-11-18T16:06:27.188Z,4.90
2017-11-18T16:08:56.353Z,4.80
2017-11-18T16:11:24.812Z,4.80
2017-11-18T16:13:53.208Z,4.80
2017-11-18T16:16:21.604Z,4.80
2017-11-18T16:18:50.812Z,4.80
2017-11-18T16:21:19.975Z,4.80
2017-11-18T16:23:48.441Z,4.80
2017-11-18T16:26:16.872Z,4.70
2017-11-18T16:28:46.017Z,4.70
2017-11-18T16:31:14.686Z,4.70
2017-11-18T16:33:43.160Z,4.70
2017-11-18T16:36:11.548Z,4.70
2017-11-18T16:38:40.003Z,4.70
2017-11-18T16:41:08.449Z,4.70
2017-11-18T16:43:37.319Z,4.70
2017-11-18T16:46:05.736Z,4.60
2017-11-18T16:48:34.892Z,4.80
2017-11-18T16:51:03.324Z,4.80
2017-11-18T16:53:32.696Z,4.80
2017-11-18T16:56:01.420Z,4.80
2017-11-18T16:58:29.841Z,4.70
2017-11-18T17:00:59.020Z,4.70
2017-11-18T17:03:27.425Z,4.70
2017-11-18T17:05:55.863Z,4.60
2017-11-18T17:08:24.392Z,4.60
2017-11-18T17:10:52.806Z,4.60
2017-11-18T17:13:21.284Z,4.60
2017-11-18T17:15:49.715Z,4.70
2017-11-18T17:18:18.158Z,4.60
2017-11-18T17:20:46.680Z,4.60
2017-11-18T17:23:15.329Z,4.60
2017-11-18T17:25:43.709Z,4.60
2017-11-18T17:28:12.190Z,4.60
2017-11-18T17:30:40.585Z,4.60
2017-11-18T17:33:09.298Z,4.60
2017-11-18T17:35:37.729Z,4.60
2017-11-18T17:38:06.175Z,4.60
2017-11-18T17:40:34.620Z,4.60
2017-11-18T17:43:03.000Z,4.60
2017-11-18T17:45:32.426Z,4.60
2017-11-18T17:48:00.905Z,4.50
2017-11-18T17:50:29.288Z,4.50
2017-11-18T17:52:57.712Z,4.50
2017-11-18T17:55:26.090Z,4.50
2017-11-18T18:00:29.338Z,4.50
2017-11-18T18:02:59.031Z,4.40
2017-11-18T18:05:27.418Z,4.40
2017-11-18T18:07:55.831Z,4.40
2017-11-18T18:10:24.247Z,4.40
2017-11-18T18:12:52.627Z,4.40
2017-11-18T18:15:21.106Z,4.40
2017-11-18T18:17:49.474Z,4.30
2017-11-18T18:20:17.848Z,4.30
2017-11-18T18:22:47.017Z,4.30
2017-11-18T18:25:15.396Z,4.30
2017-11-18T18:27:43.893Z,4.20
2017-11-18T18:30:13.488Z,4.30
2017-11-18T18:32:42.805Z,4.20
2017-11-18T18:35:11.241Z,4.20
2017-11-18T18:37:39.740Z,4.20
2017-11-18T18:40:08.191Z,4.20
2017-11-18T18:42:36.591Z,4.10
2017-11-18T18:45:05.051Z,4.10
2017-11-18T18:47:34.238Z,4.10
2017-11-18T18:50:02.608Z,4.10
2017-11-18T18:52:32.871Z,4.10
2017-11-18T18:55:02.797Z,4.10
2017-11-18T18:57:31.206Z,4.10
2017-11-18T18:59:59.629Z,4.10
2017-11-18T19:02:28.024Z,4.10
2017-11-18T19:04:56.518Z,4.10
2017-11-18T19:07:24.886Z,4.10
2017-11-18T19:09:53.257Z,4.10
2017-11-18T19:12:21.652Z,4.20
2017-11-18T19:14:50.064Z,4.20
2017-11-18T19:17:18.770Z,4.20
2017-11-18T19:19:47.151Z,4.20
2017-11-18T19:22:15.925Z,4.20
2017-11-18T19:24:44.854Z,4.20
2017-11-18T19:27:13.641Z,4.20
2017-11-18T19:29:42.331Z,4.20
2017-11-18T19:32:11.409Z,4.10
2017-11-18T19:34:39.860Z,4.10
2017-11-18T19:37:08.690Z,4.10
2017-11-18T19:39:38.284Z,4.00
2017-11-18T19:42:07.366Z,4.00
2017-11-18T19:44:36.060Z,4.00
2017-11-18T19:47:04.684Z,3.90
2017-11-18T19:49:33.477Z,3.90
2017-11-18T19:52:02.251Z,3.90
2017-11-18T19:54:31.820Z,3.90
2017-11-18T19:57:00.387Z,3.90
2017-11-18T19:59:29.173Z,3.90
2017-11-18T20:01:58.004Z,3.90
2017-11-18T20:04:26.741Z,3.90
2017-11-18T20:06:55.789Z,3.80
2017-11-18T20:09:25.990Z,3.80
2017-11-18T20:11:56.089Z,3.80
2017-11-18T20:14:25.243Z,3.80
2017-11-18T20:16:54.178Z,3.70
2017-11-18T20:19:22.806Z,3.70
2017-11-18T20:21:52.286Z,3.70
2017-11-18T20:24:21.262Z,3.70
2017-11-18T20:26:50.274Z,3.70
2017-11-18T20:29:19.918Z,3.70
2017-11-18T20:31:48.492Z,3.70
2017-11-18T20:34:17.124Z,3.70
2017-11-18T20:36:45.801Z,3.70
2017-11-18T20:39:14.513Z,3.70
2017-11-18T20:41:43.070Z,3.70
2017-11-18T20:44:11.853Z,3.70
2017-11-18T20:46:40.385Z,3.70
2017-11-18T20:49:10.192Z,3.70
2017-11-18T20:51:38.853Z,3.70
2017-11-18T20:54:07.772Z,3.70
2017-11-18T20:56:36.968Z,3.70
2017-11-18T20:59:05.608Z,3.70
2017-11-18T21:01:34.454Z,3.70
2017-11-18T21:04:03.322Z,3.70
2017-11-18T21:06:32.598Z,3.70
2017-11-18T21:09:02.100Z,3.70
2017-11-18T21:11:30.870Z,3.80
2017-11-18T21:14:00.367Z,3.70
2017-11-18T21:16:29.707Z,3.70
2017-11-18T21:18:58.537Z,3.70
2017-11-18T21:21:27.159Z,3.80
2017-11-18T21:23:55.901Z,3.70
2017-11-18T21:26:25.100Z,3.70
2017-11-18T21:28:54.168Z,3.70
2017-11-18T21:31:23.115Z,3.70
2017-11-18T21:33:51.952Z,3.70
2017-11-18T21:36:21.260Z,3.70
2017-11-18T21:38:49.965Z,3.70
2017-11-18T21:41:18.819Z,3.70
2017-11-18T21:43:47.468Z,3.70
2017-11-18T21:46:15.894Z,3.70
2017-11-18T21:48:44.309Z,3.70
2017-11-18T21:51:12.756Z,3.70
2017-11-18T21:53:41.230Z,3.70
2017-11-18T21:56:09.626Z,3.70
2017-11-18T21:58:38.236Z,3.70
2017-11-18T22:01:06.731Z,3.70
2017-11-18T22:03:35.998Z,3.70
2017-11-18T22:06:04.388Z,3.70
2017-11-18T22:08:33.662Z,3.70
2017-11-18T22:11:02.294Z,3.70
2017-11-18T22:13:31.101Z,3.70
2017-11-18T22:16:00.033Z,3.70
2017-11-18T22:18:28.724Z,3.70
2017-11-18T22:20:57.353Z,3.70
2017-11-18T22:23:26.259Z,3.70
2017-11-18T22:25:54.852Z,3.70
2017-11-18T22:28:23.576Z,3.60
2017-11-18T22:30:52.142Z,3.60
2017-11-18T22:33:20.541Z,3.60
2017-11-18T22:35:48.939Z,3.60
2017-11-18T22:38:18.091Z,3.60
2017-11-18T22:40:46.801Z,3.60
2017-11-18T22:43:15.239Z,3.60
2017-11-18T22:45:43.838Z,3.60
2017-11-18T22:48:13.088Z,3.60
2017-11-18T22:50:42.699Z,3.50
2017-11-18T22:53:12.357Z,3.50
2017-11-18T22:55:40.832Z,3.50
2017-11-18T22:58:09.219Z,3.50
2017-11-18T23:00:44.406Z,3.50
2017-11-18T23:03:12.912Z,3.50
2017-11-18T23:05:41.608Z,3.40
2017-11-18T23:08:09.994Z,3.40
2017-11-18T23:10:39.139Z,3.50
2017-11-18T23:13:08.329Z,3.50
2017-11-18T23:15:37.472Z,3.50
2017-11-18T23:18:05.878Z,3.50
2017-11-18T23:20:34.282Z,3.50
2017-11-18T23:23:03.422Z,3.50
2017-11-18T23:25:31.847Z,3.50
2017-11-18T23:28:00.294Z,3.50
2017-11-18T23:30:28.977Z,3.50
2017-11-18T23:32:57.353Z,3.50
2017-11-18T23:35:25.733Z,3.50
2017-11-18T23:37:54.924Z,3.50
2017-11-18T23:40:23.294Z,3.50
2017-11-18T23:45:26.416Z,3.50
2017-11-18T23:47:54.855Z,3.50
2017-11-18T23:50:24.023Z,3.50
2017-11-18T23:52:52.412Z,3.50
2017-11-18T23:55:20.879Z,3.50
2017-11-18T23:57:49.289Z,3.50
